Time;durP1;ratioP1;P1;durP2;ratioP2;P2;SDS_P1;SDS_P2;PMS_P1;PMS_P2;Temp;Humidity;BMP_temperature;BMP_pressure;BME280_temperature;BME280_humidity;BME280_pressure;Samples;Min_cycle;Max_cycle;Signal;HPM_P1;HPM_P2
2021/01/22 00:01:45;;;;;;;2.23;1.40;;;10.40;99.90;;;;;;4973175;28;20554;-65
2021/01/22 00:04:11;;;;;;;2.17;1.57;;;10.40;99.90;;;;;;4955924;28;20193;-64
2021/01/22 00:06:36;;;;;;;1.50;1.20;;;10.50;99.90;;;;;;4953893;28;20659;-64
2021/01/22 00:09:03;;;;;;;1.40;1.30;;;10.50;99.90;;;;;;4968783;28;20280;-64
2021/01/22 00:11:28;;;;;;;2.20;1.40;;;10.50;99.90;;;;;;4973107;28;20288;-65
2021/01/22 00:13:54;;;;;;;3.83;1.20;;;10.50;99.90;;;;;;4959112;28;20730;-63
2021/01/22 00:16:19;;;;;;;3.13;1.13;;;10.60;99.90;;;;;;4953854;28;20166;-63
2021/01/22 00:18:46;;;;;;;2.10;1.20;;;10.60;99.90;;;;;;4964917;28;20188;-64
2021/01/22 00:21:11;;;;;;;1.33;1.23;;;10.60;99.90;;;;;;4972962;28;20840;-63
2021/01/22 00:23:37;;;;;;;2.03;1.30;;;10.60;99.90;;;;;;4954052;28;20186;-64
2021/01/22 00:26:06;;;;;;;1.20;1.20;;;10.60;99.90;;;;;;4959325;28;20260;-64
2021/01/22 00:28:34;;;;;;;1.33;1.23;;;10.70;99.90;;;;;;4953302;28;20546;-64
2021/01/22 00:30:59;;;;;;;2.73;1.53;;;10.70;99.90;;;;;;4958106;28;20209;-64
2021/01/22 00:33:25;;;;;;;3.93;2.17;;;10.70;99.90;;;;;;4972911;28;20174;-64
2021/01/22 00:35:51;;;;;;;1.93;1.60;;;10.70;99.90;;;;;;4969304;28;20170;-64
2021/01/22 00:38:17;;;;;;;1.90;1.47;;;10.80;99.90;;;;;;4952986;28;20166;-64
2021/01/22 00:40:43;;;;;;;3.50;1.83;;;10.80;99.90;;;;;;4954439;28;20569;-64
2021/01/22 00:43:09;;;;;;;2.63;1.40;;;10.80;99.90;;;;;;4972788;28;20169;-63
2021/01/22 00:45:34;;;;;;;3.67;1.90;;;10.80;99.90;;;;;;4972598;28;20643;-64
2021/01/22 00:48:00;;;;;;;2.87;1.70;;;10.80;99.90;;;;;;4971988;28;20659;-64
2021/01/22 00:50:25;;;;;;;6.10;2.47;;;10.90;99.90;;;;;;4972649;28;20639;-64
2021/01/22 00:52:52;;;;;;;3.33;1.70;;;10.90;99.90;;;;;;4954974;28;20190;-64
2021/01/22 00:55:18;;;;;;;3.60;1.50;;;10.90;99.90;;;;;;4966406;28;20188;-65
2021/01/22 00:57:43;;;;;;;2.33;1.50;;;10.90;99.90;;;;;;4972522;28;20188;-64
2021/01/22 01:00:11;;;;;;;2.83;1.47;;;10.90;99.90;;;;;;4960966;28;20543;-64
2021/01/22 01:02:36;;;;;;;3.07;1.63;;;10.80;99.90;;;;;;4953222;28;20175;-65
2021/01/22 01:05:06;;;;;;;5.70;1.77;;;10.70;99.90;;;;;;4959292;28;20604;-64
2021/01/22 01:07:35;;;;;;;3.50;1.80;;;10.70;99.90;;;;;;4972457;28;20217;-64
2021/01/22 01:10:02;;;;;;;4.10;1.60;;;10.70;99.90;;;;;;4963043;28;20181;-63
2021/01/22 01:12:28;;;;;;;4.37;1.93;;;10.70;99.90;;;;;;4953213;28;20244;-64
2021/01/22 01:14:53;;;;;;;2.47;1.73;;;10.60;99.90;;;;;;4960281;28;20170;-63
2021/01/22 01:17:19;;;;;;;1.80;1.37;;;10.50;99.90;;;;;;4972316;28;20178;-64
2021/01/22 01:19:44;;;;;;;3.20;1.37;;;10.50;99.90;;;;;;4966691;28;20265;-65
2021/01/22 01:22:10;;;;;;;2.90;1.30;;;10.50;99.90;;;;;;4954557;28;20202;-63
2021/01/22 01:24:35;;;;;;;1.87;1.37;;;10.40;99.90;;;;;;4972362;28;20201;-64
2021/01/22 01:27:01;;;;;;;3.37;1.53;;;10.30;99.90;;;;;;4971711;28;20174;-64
2021/01/22 01:29:26;;;;;;;1.97;1.50;;;10.30;99.90;;;;;;4953305;28;20265;-64
2021/01/22 01:31:52;;;;;;;3.83;1.40;;;10.20;99.90;;;;;;4952873;28;20209;-64
2021/01/22 01:34:18;;;;;;;5.97;1.73;;;10.20;99.90;;;;;;4970171;28;20278;-62
2021/01/22 01:36:43;;;;;;;1.73;1.60;;;10.20;99.90;;;;;;4971951;28;20189;-64
2021/01/22 01:39:09;;;;;;;2.37;1.30;;;10.20;99.90;;;;;;4956411;28;20269;-63
2021/01/22 01:41:35;;;;;;;2.10;1.30;;;10.30;99.90;;;;;;4952788;28;20220;-63
2021/01/22 01:44:00;;;;;;;2.50;1.53;;;10.30;99.90;;;;;;4966382;28;20272;-64
2021/01/22 01:46:26;;;;;;;1.77;1.57;;;10.30;99.90;;;;;;4972279;28;20178;-64
2021/01/22 01:48:52;;;;;;;1.77;1.47;;;10.30;99.90;;;;;;4959751;28;20217;-64
2021/01/22 01:51:18;;;;;;;1.43;1.30;;;10.30;99.90;;;;;;4962359;28;20213;-63
2021/01/22 01:53:43;;;;;;;2.83;1.30;;;10.10;99.90;;;;;;4975596;28;20174;-65
2021/01/22 01:56:10;;;;;;;1.50;1.30;;;9.20;99.90;;;;;;4969428;28;20194;-63
2021/01/22 01:58:36;;;;;;;1.17;1.17;;;8.00;99.90;;;;;;4955964;28;20174;-64
2021/01/22 02:01:02;;;;;;;1.20;1.20;;;7.50;99.90;;;;;;4960169;28;20206;-64
2021/01/22 02:03:28;;;;;;;2.73;1.40;;;7.20;99.90;;;;;;4975593;28;20172;-64
2021/01/22 02:05:53;;;;;;;2.20;1.30;;;7.10;99.90;;;;;;4972484;28;20189;-63
2021/01/22 02:08:19;;;;;;;2.60;1.20;;;7.00;99.90;;;;;;4955891;28;20178;-64
2021/01/22 02:10:46;;;;;;;1.53;1.30;;;7.00;99.90;;;;;;4957051;28;20221;-64
2021/01/22 02:13:13;;;;;;;2.23;1.30;;;6.90;99.90;;;;;;4956039;28;20170;-64
2021/01/22 02:15:39;;;;;;;1.73;1.63;;;6.90;99.90;;;;;;4963771;28;20251;-64
2021/01/22 02:18:06;;;;;;;3.17;1.90;;;6.90;99.90;;;;;;4974983;28;20199;-64
2021/01/22 02:20:45;;;;;;;1.50;1.40;;;6.80;99.90;;;;;;4960013;28;20286;-64
2021/01/22 02:23:14;;;;;;;2.10;1.90;;;6.80;99.90;;;;;;4969510;28;20188;-64
2021/01/22 02:25:40;;;;;;;2.40;2.20;;;6.80;99.90;;;;;;4975055;28;20188;-64
2021/01/22 02:28:12;;;;;;;2.83;2.53;;;6.70;99.90;;;;;;4961845;28;20250;-63
2021/01/22 02:30:43;;;;;;;2.03;1.93;;;6.60;99.90;;;;;;4955589;28;20206;-63
2021/01/22 02:33:11;;;;;;;1.90;1.80;;;6.40;99.90;;;;;;4968076;28;20181;-64
2021/01/22 02:35:39;;;;;;;2.43;2.23;;;6.20;99.90;;;;;;4974817;28;20166;-64
2021/01/22 02:38:06;;;;;;;2.33;2.13;;;6.00;99.90;;;;;;4963213;28;20181;-65
2021/01/22 02:40:34;;;;;;;2.60;1.70;;;5.90;99.90;;;;;;4955342;28;20266;-63
2021/01/22 02:43:02;;;;;;;2.43;2.23;;;5.60;99.90;;;;;;4965130;28;20660;-64
2021/01/22 02:45:29;;;;;;;2.73;2.53;;;5.30;99.90;;;;;;4974804;28;20169;-63
2021/01/22 02:47:56;;;;;;;2.50;2.30;;;5.10;99.90;;;;;;4965567;28;20189;-63
2021/01/22 02:50:35;;;;;;;3.47;3.27;;;5.00;99.90;;;;;;4955225;28;20218;-64
2021/01/22 02:53:05;;;;;;;3.40;3.10;;;4.90;99.90;;;;;;4963712;28;20170;-64
2021/01/22 02:55:33;;;;;;;2.17;2.07;;;4.80;99.90;;;;;;4974665;28;20170;-63
2021/01/22 02:58:47;;;;;;;3.50;3.17;;;4.80;99.90;;;;;;4966351;28;20240;-64
2021/01/22 03:01:16;;;;;;;2.27;2.07;;;4.80;99.90;;;;;;4964616;28;20745;-63
2021/01/22 03:04:04;;;;;;;2.00;1.90;;;4.80;99.90;;;;;;4974269;28;20660;-63
2021/01/22 03:06:36;;;;;;;2.30;2.10;;;4.70;99.90;;;;;;4962365;28;20201;-63
2021/01/22 03:09:02;;;;;;;3.50;3.20;;;4.60;99.90;;;;;;4954551;28;20192;-63
2021/01/22 03:11:29;;;;;;;4.20;3.80;;;4.60;99.90;;;;;;4965370;28;20300;-64
2021/01/22 03:13:57;;;;;;;5.27;4.77;;;4.70;99.90;;;;;;4974251;28;20177;-64
2021/01/22 03:16:25;;;;;;;6.43;5.83;;;4.70;99.90;;;;;;4964353;28;20186;-63
2021/01/22 03:19:01;;;;;;;6.63;5.93;;;4.70;99.90;;;;;;4954338;28;20253;-63
2021/01/22 03:21:27;;;;;;;6.23;5.43;;;4.70;99.90;;;;;;4963949;28;20652;-64
2021/01/22 03:23:53;;;;;;;6.73;6.10;;;4.60;99.90;;;;;;4973940;28;20221;-64
2021/01/22 03:26:19;;;;;;;8.27;5.93;;;4.60;99.90;;;;;;4970279;28;20240;-63
2021/01/22 03:28:45;;;;;;;7.73;5.50;;;4.60;99.90;;;;;;4954256;28;20182;-64
2021/01/22 03:31:10;;;;;;;9.23;6.03;;;4.50;99.90;;;;;;4960337;28;20210;-63
2021/01/22 03:33:36;;;;;;;7.13;5.77;;;4.50;99.90;;;;;;4973648;28;20229;-64
2021/01/22 03:36:03;;;;;;;7.13;6.20;;;4.50;99.90;;;;;;4972280;28;20197;-65
2021/01/22 03:38:28;;;;;;;8.23;7.43;;;4.50;99.90;;;;;;4973530;28;20173;-63
2021/01/22 03:40:54;;;;;;;8.13;6.90;;;4.50;99.90;;;;;;4970791;28;21437;-64
2021/01/22 03:43:20;;;;;;;8.33;7.17;;;4.50;99.90;;;;;;4954362;28;20654;-63
2021/01/22 03:45:46;;;;;;;9.20;7.57;;;4.50;99.90;;;;;;4954652;28;20553;-64
2021/01/22 03:48:12;;;;;;;11.00;7.67;;;4.60;99.90;;;;;;4973396;28;20177;-64
2021/01/22 03:50:37;;;;;;;10.50;8.63;;;4.60;99.90;;;;;;4973265;28;20209;-63
2021/01/22 03:53:03;;;;;;;10.90;9.03;;;4.60;99.90;;;;;;4954972;28;20544;-64
2021/01/22 03:55:28;;;;;;;12.20;9.23;;;4.60;99.90;;;;;;4962409;28;20181;-64
2021/01/22 03:57:54;;;;;;;12.13;9.73;;;4.60;99.90;;;;;;4973379;28;20181;-63
2021/01/22 04:00:19;;;;;;;11.33;9.13;;;4.60;99.90;;;;;;4966567;28;20277;-63
2021/01/22 04:02:45;;;;;;;10.77;8.80;;;4.60;99.90;;;;;;4953951;28;20174;-64
2021/01/22 04:05:12;;;;;;;10.60;8.37;;;4.60;99.90;;;;;;4958437;28;20185;-62
2021/01/22 04:07:38;;;;;;;7.30;6.60;;;4.60;99.90;;;;;;4972913;28;20557;-63
2021/01/22 04:10:05;;;;;;;5.97;5.30;;;4.60;99.90;;;;;;4969860;28;20192;-64
2021/01/22 04:12:30;;;;;;;6.03;4.83;;;4.60;99.90;;;;;;4959874;28;20555;-64
2021/01/22 04:14:56;;;;;;;7.23;4.60;;;4.50;99.90;;;;;;4971075;28;20181;-64
2021/01/22 04:17:22;;;;;;;5.83;4.37;;;4.60;99.90;;;;;;4953581;28;20185;-64
2021/01/22 04:19:48;;;;;;;6.77;4.93;;;4.60;99.90;;;;;;4954759;28;20225;-63
2021/01/22 04:22:14;;;;;;;5.27;4.63;;;4.50;99.90;;;;;;4953752;28;20202;-62
2021/01/22 04:24:39;;;;;;;5.80;4.33;;;4.50;99.90;;;;;;4968598;28;20570;-64
2021/01/22 04:27:05;;;;;;;4.63;4.10;;;4.50;99.90;;;;;;4972594;28;20173;-64
2021/01/22 04:29:31;;;;;;;5.77;5.00;;;4.50;99.90;;;;;;4959452;28;20229;-62
2021/01/22 04:31:57;;;;;;;7.97;5.80;;;4.50;99.90;;;;;;4953527;28;20245;-62
2021/01/22 04:34:22;;;;;;;8.40;6.33;;;4.60;99.90;;;;;;4964954;28;20189;-64
2021/01/22 04:36:49;;;;;;;7.20;5.73;;;4.60;99.90;;;;;;4972829;28;20184;-64
2021/01/22 04:39:14;;;;;;;6.67;5.57;;;4.70;99.90;;;;;;4962752;28;20181;-64
2021/01/22 04:41:40;;;;;;;7.23;6.50;;;4.70;99.90;;;;;;4953450;28;20324;-64
2021/01/22 04:44:06;;;;;;;10.40;5.53;;;4.70;99.90;;;;;;4961800;28;20647;-64
2021/01/22 04:46:36;;;;;;;7.50;5.93;;;4.70;99.90;;;;;;4972740;28;20563;-64
2021/01/22 04:49:04;;;;;;;7.07;5.27;;;4.80;99.90;;;;;;4964958;28;20325;-64
2021/01/22 04:51:30;;;;;;;5.87;5.27;;;4.80;99.90;;;;;;4956253;28;20474;-64
2021/01/22 04:54:02;;;;;;;8.37;5.93;;;4.90;99.90;;;;;;4972690;28;20208;-64
2021/01/22 04:56:31;;;;;;;12.00;8.20;;;4.90;99.90;;;;;;4970355;28;20927;-64
2021/01/22 04:59:00;;;;;;;9.67;7.10;;;4.90;99.90;;;;;;4952902;28;20178;-64
2021/01/22 05:01:26;;;;;;;7.97;6.57;;;4.90;99.90;;;;;;4954389;28;20213;-64
2021/01/22 05:03:52;;;;;;;8.77;6.50;;;4.90;99.90;;;;;;4972542;28;20189;-63
2021/01/22 05:06:18;;;;;;;7.60;5.73;;;4.90;99.90;;;;;;4972320;28;20180;-64
2021/01/22 05:08:43;;;;;;;7.93;6.40;;;4.90;99.90;;;;;;4956630;28;20259;-64
2021/01/22 05:11:09;;;;;;;10.47;6.63;;;5.00;99.90;;;;;;4952978;28;20587;-62
2021/01/22 05:13:36;;;;;;;8.57;6.60;;;5.00;99.90;;;;;;4970433;28;20261;-64
2021/01/22 05:16:09;;;;;;;10.00;6.47;;;5.00;99.90;;;;;;4972401;28;20268;-64
2021/01/22 05:18:35;;;;;;;11.00;7.77;;;5.00;99.90;;;;;;4954760;28;20269;-62
2021/01/22 05:21:12;;;;;;;10.57;7.50;;;5.00;99.90;;;;;;4965451;28;20292;-63
2021/01/22 05:23:39;;;;;;;8.30;6.47;;;5.00;99.90;;;;;;4972355;28;20563;-62
2021/01/22 05:26:13;;;;;;;12.97;7.67;;;5.00;99.90;;;;;;4961891;28;20190;-64
2021/01/22 05:28:48;;;;;;;10.10;7.90;;;5.00;99.90;;;;;;4956684;28;20244;-64
2021/01/22 05:31:16;;;;;;;11.50;7.90;;;5.10;99.90;;;;;;4969545;28;20296;-64
2021/01/22 05:33:54;;;;;;;10.30;7.53;;;5.10;99.90;;;;;;4975874;28;20181;-64
2021/01/22 05:36:22;;;;;;;13.07;8.80;;;5.10;99.90;;;;;;4962863;28;20186;-64
2021/01/22 05:38:48;;;;;;;12.13;7.30;;;5.10;99.90;;;;;;4956222;28;20667;-64
2021/01/22 05:41:14;;;;;;;12.57;7.87;;;5.10;99.90;;;;;;4968847;28;20280;-66
2021/01/22 05:43:39;;;;;;;12.23;8.10;;;5.00;99.90;;;;;;4976139;28;20177;-66
2021/01/22 05:46:16;;;;;;;15.83;8.43;;;5.00;99.90;;;;;;4965585;28;20186;-66
2021/01/22 05:48:43;;;;;;;13.87;8.30;;;5.00;99.90;;;;;;4963213;28;20272;-66
2021/01/22 05:51:08;;;;;;;16.23;9.00;;;5.00;99.90;;;;;;4975840;28;20205;-65
2021/01/22 05:53:46;;;;;;;17.63;10.37;;;5.00;99.90;;;;;;4970178;28;20541;-66
2021/01/22 05:56:16;;;;;;;15.67;9.43;;;4.90;99.90;;;;;;4956700;28;20170;-65
2021/01/22 05:58:43;;;;;;;14.60;9.20;;;4.90;99.90;;;;;;4962108;28;20536;-65
2021/01/22 06:01:13;;;;;;;20.13;10.37;;;4.90;99.90;;;;;;4975703;28;20206;-65
2021/01/22 06:03:44;;;;;;;19.00;9.37;;;4.90;99.90;;;;;;4970951;28;20218;-66
2021/01/22 06:06:10;;;;;;;17.00;9.27;;;5.00;99.90;;;;;;4957757;28;20273;-66
2021/01/22 06:08:57;;;;;;;16.20;9.77;;;5.00;99.90;;;;;;4961069;28;20247;-66
2021/01/22 06:11:30;;;;;;;18.80;9.53;;;5.00;99.90;;;;;;4976514;28;20201;-66
2021/01/22 06:14:02;;;;;;;18.10;9.80;;;5.00;99.90;;;;;;4970025;28;20182;-66
2021/01/22 06:16:29;;;;;;;13.73;8.17;;;5.00;99.90;;;;;;4959392;28;20240;-64
2021/01/22 06:18:54;;;;;;;14.20;8.20;;;5.00;99.90;;;;;;4976520;28;20185;-66
2021/01/22 06:21:24;;;;;;;13.30;9.00;;;5.00;99.90;;;;;;4963650;28;20214;-66
2021/01/22 06:23:51;;;;;;;13.70;8.90;;;5.00;99.90;;;;;;4957841;28;20178;-66
2021/01/22 06:26:18;;;;;;;11.80;8.30;;;5.00;99.90;;;;;;4970326;28;20721;-65
2021/01/22 06:28:44;;;;;;;9.03;6.93;;;5.00;99.90;;;;;;4976898;28;20192;-66
2021/01/22 06:31:10;;;;;;;12.47;7.93;;;5.00;99.90;;;;;;4966004;28;20271;-66
2021/01/22 06:33:36;;;;;;;11.83;7.53;;;5.00;99.90;;;;;;4958429;28;20257;-66
2021/01/22 06:36:06;;;;;;;10.17;7.13;;;5.00;99.90;;;;;;4967012;28;20200;-66
2021/01/22 06:38:33;;;;;;;9.60;7.10;;;5.00;99.90;;;;;;4977125;28;20201;-66
2021/01/22 06:41:00;;;;;;;11.20;6.33;;;5.00;99.90;;;;;;4968444;28;20688;-65
2021/01/22 06:43:26;;;;;;;12.33;6.47;;;5.00;99.90;;;;;;4957774;28;20302;-66
2021/01/22 06:45:59;;;;;;;8.13;6.63;;;5.00;99.90;;;;;;4960626;28;20264;-65
2021/01/22 06:48:25;;;;;;;8.20;6.07;;;5.00;99.90;;;;;;4959457;28;20237;-66
2021/01/22 06:50:51;;;;;;;8.43;6.03;;;5.00;99.90;;;;;;4969908;28;20587;-66
2021/01/22 06:53:16;;;;;;;10.10;7.53;;;5.10;99.90;;;;;;4978268;28;20186;-66
2021/01/22 06:55:51;;;;;;;12.13;7.73;;;5.10;99.90;;;;;;4967706;28;20687;-66
2021/01/22 06:58:32;;;;;;;11.67;7.60;;;5.10;99.90;;;;;;4958483;28;20197;-66
2021/01/22 07:01:03;;;;;;;15.37;8.57;;;5.00;99.90;;;;;;4972678;28;20209;-64
2021/01/22 07:03:48;;;;;;;13.37;8.47;;;5.00;99.90;;;;;;4977907;28;20173;-66
2021/01/22 07:06:31;;;;;;;10.97;7.53;;;5.10;99.90;;;;;;4960334;28;20190;-66
2021/01/22 07:08:58;;;;;;;10.00;7.03;;;5.10;99.90;;;;;;4957065;28;20186;-66
2021/01/22 07:11:24;;;;;;;13.77;8.30;;;5.10;99.90;;;;;;4974031;28;20213;-64
2021/01/22 07:13:52;;;;;;;10.07;7.10;;;5.10;99.90;;;;;;4972882;28;20310;-65
2021/01/22 07:16:17;;;;;;;12.13;8.37;;;5.10;99.90;;;;;;4974864;28;20181;-66
2021/01/22 07:18:50;;;;;;;11.37;7.07;;;5.10;99.90;;;;;;4967138;28;20637;-67
2021/01/22 07:21:41;;;;;;;12.10;8.17;;;5.10;99.90;;;;;;4955281;28;20535;-65
2021/01/22 07:24:15;;;;;;;9.97;7.47;;;5.10;99.90;;;;;;4974901;28;20193;-65
2021/01/22 07:26:45;;;;;;;10.30;7.87;;;5.10;99.90;;;;;;4973844;28;20701;-65
2021/01/22 07:29:24;;;;;;;9.90;6.93;;;5.10;99.90;;;;;;4974053;28;20178;-65
2021/01/22 07:31:56;;;;;;;6.70;5.60;;;5.10;99.90;;;;;;4973864;28;20585;-64
2021/01/22 07:34:50;;;;;;;7.73;6.23;;;5.10;99.90;;;;;;4955203;28;20177;-66
2021/01/22 07:37:21;;;;;;;7.57;5.70;;;5.10;99.90;;;;;;4957302;28;20272;-66
2021/01/22 07:39:47;;;;;;;6.47;5.63;;;5.10;99.90;;;;;;4974115;28;20540;-66
2021/01/22 07:42:18;;;;;;;7.07;5.20;;;5.10;99.90;;;;;;4965117;28;20304;-66
2021/01/22 07:44:48;;;;;;;6.07;4.57;;;5.20;99.90;;;;;;4955271;28;20182;-67
2021/01/22 07:47:25;;;;;;;6.00;5.30;;;5.20;99.90;;;;;;4962441;28;20204;-65
2021/01/22 07:49:53;;;;;;;7.23;4.47;;;5.20;99.90;;;;;;4974932;28;20189;-66
2021/01/22 07:52:18;;;;;;;7.47;4.93;;;5.20;99.90;;;;;;4966943;28;20289;-67
2021/01/22 07:54:44;;;;;;;5.13;3.50;;;5.30;99.90;;;;;;4956148;28;20201;-67
2021/01/22 07:57:26;;;;;;;4.43;3.63;;;5.30;99.90;;;;;;4961522;28;20551;-66
2021/01/22 07:59:53;;;;;;;6.17;4.37;;;5.40;99.90;;;;;;4975463;28;20539;-66
2021/01/22 08:02:21;;;;;;;4.00;3.60;;;5.30;99.90;;;;;;4966896;28;20554;-66
2021/01/22 08:04:55;;;;;;;4.57;3.80;;;5.30;99.90;;;;;;4954486;28;20174;-66
2021/01/22 08:07:40;;;;;;;4.67;3.60;;;5.30;99.90;;;;;;4960741;28;20192;-67
2021/01/22 08:10:10;;;;;;;4.40;3.57;;;5.30;99.90;;;;;;4969227;28;20213;-66
2021/01/22 08:12:37;;;;;;;4.40;3.27;;;5.30;99.90;;;;;;4954688;28;20178;-67
2021/01/22 08:15:19;;;;;;;5.20;3.37;;;5.30;99.90;;;;;;4958118;28;20655;-65
2021/01/22 08:17:46;;;;;;;3.93;3.00;;;5.30;99.90;;;;;;4973407;28;20636;-67
2021/01/22 08:20:13;;;;;;;5.63;5.03;;;5.30;99.90;;;;;;4960746;28;20592;-66
2021/01/22 08:22:39;;;;;;;3.77;3.40;;;5.40;99.90;;;;;;4954988;28;20166;-65
2021/01/22 08:25:06;;;;;;;4.40;3.50;;;5.50;99.90;;;;;;4966633;28;20217;-67
2021/01/22 08:27:31;;;;;;;3.60;2.80;;;5.40;99.90;;;;;;4973961;28;20189;-66
2021/01/22 08:29:58;;;;;;;4.90;3.47;;;5.50;99.90;;;;;;4964895;28;20474;-67
2021/01/22 08:32:24;;;;;;;4.13;3.43;;;5.60;99.90;;;;;;4955382;28;20273;-66
2021/01/22 08:34:50;;;;;;;3.73;3.37;;;5.60;99.90;;;;;;4963420;28;20648;-66
2021/01/22 08:37:16;;;;;;;3.90;3.50;;;5.70;99.90;;;;;;4973996;28;20178;-66
2021/01/22 08:39:55;;;;;;;3.87;2.90;;;5.80;99.90;;;;;;4966747;28;20182;-67
2021/01/22 08:42:22;;;;;;;3.90;3.30;;;5.70;99.90;;;;;;4954130;28;20213;-66
2021/01/22 08:45:02;;;;;;;3.60;3.30;;;5.80;99.90;;;;;;4954204;28;20640;-67
2021/01/22 08:47:31;;;;;;;5.67;3.00;;;5.90;99.90;;;;;;4952969;28;20182;-65
2021/01/22 08:49:59;;;;;;;3.53;2.60;;;6.00;99.90;;;;;;4961472;28;20181;-67
2021/01/22 08:52:26;;;;;;;3.53;3.13;;;6.00;99.90;;;;;;4972879;28;20217;-66
2021/01/22 08:54:54;;;;;;;5.80;3.37;;;6.00;99.90;;;;;;4965888;28;20205;-67
2021/01/22 08:57:20;;;;;;;4.97;3.70;;;6.10;99.90;;;;;;4953259;28;20170;-66
2021/01/22 08:59:59;;;;;;;4.80;3.23;;;6.10;99.90;;;;;;4959590;28;20181;-67
2021/01/22 09:02:42;;;;;;;18.03;11.37;;;6.10;99.90;;;;;;4974237;28;20279;-67
2021/01/22 09:05:11;;;;;;;12.50;7.80;;;6.10;99.90;;;;;;4957567;28;20188;-66
2021/01/22 09:07:40;;;;;;;3.60;3.30;;;6.10;99.90;;;;;;4961497;28;20186;-66
2021/01/22 09:10:30;;;;;;;3.43;3.13;;;6.00;99.90;;;;;;4976444;28;20190;-67
2021/01/22 09:13:08;;;;;;;6.10;3.13;;;6.00;99.90;;;;;;4970756;28;20170;-66
2021/01/22 09:15:34;;;;;;;3.60;3.07;;;6.00;99.90;;;;;;4957546;28;20178;-65
2021/01/22 09:17:59;;;;;;;3.27;2.40;;;6.00;99.90;;;;;;4961908;28;20227;-66
2021/01/22 09:20:27;;;;;;;7.03;5.20;;;6.00;99.90;;;;;;4976604;28;20181;-66
2021/01/22 09:22:55;;;;;;;18.57;8.50;;;6.10;99.90;;;;;;4971995;28;20244;-67
2021/01/22 09:25:23;;;;;;;25.00;11.53;;;6.20;99.90;;;;;;4956624;28;20651;-66
2021/01/22 09:27:51;;;;;;;35.20;16.23;;;6.30;99.90;;;;;;4957498;28;20688;-67
2021/01/22 09:30:25;;;;;;;6.33;4.40;;;6.40;99.90;;;;;;4956535;28;20182;-66
2021/01/22 09:32:53;;;;;;;4.13;3.53;;;6.40;99.90;;;;;;4974659;28;20458;-67
2021/01/22 09:35:21;;;;;;;8.83;4.03;;;6.50;99.90;;;;;;4976379;28;20628;-63
2021/01/22 09:37:48;;;;;;;7.13;4.57;;;6.60;99.90;;;;;;4975315;28;20178;-66
2021/01/22 09:40:15;;;;;;;3.27;2.77;;;6.70;99.90;;;;;;4975979;28;20201;-65
2021/01/22 09:42:41;;;;;;;5.33;3.70;;;6.70;99.90;;;;;;4960091;28;20543;-65
2021/01/22 09:45:09;;;;;;;4.03;3.00;;;6.80;99.90;;;;;;4956969;28;20177;-66
2021/01/22 09:47:35;;;;;;;5.63;3.40;;;6.90;99.90;;;;;;4971065;28;20625;-65
2021/01/22 09:50:01;;;;;;;9.03;5.37;;;6.90;99.90;;;;;;4975591;28;20256;-66
2021/01/22 09:52:27;;;;;;;5.60;4.40;;;7.00;99.90;;;;;;4961601;28;20285;-66
2021/01/22 09:54:55;;;;;;;10.73;5.07;;;7.00;99.90;;;;;;4956105;28;20185;-66
2021/01/22 09:57:20;;;;;;;7.57;4.20;;;7.00;99.90;;;;;;4968018;28;20647;-63
2021/01/22 09:59:46;;;;;;;4.20;3.60;;;7.10;99.90;;;;;;4967950;28;20178;-66
2021/01/22 10:02:11;;;;;;;3.87;3.40;;;7.20;99.90;;;;;;4956492;28;20206;-66
2021/01/22 10:04:37;;;;;;;7.90;3.90;;;7.20;99.90;;;;;;4962383;28;20235;-67
2021/01/22 10:07:04;;;;;;;4.50;2.90;;;7.20;99.90;;;;;;4975851;28;20659;-66
2021/01/22 10:09:30;;;;;;;4.13;2.93;;;7.40;99.90;;;;;;4971787;28;20209;-67
2021/01/22 10:11:56;;;;;;;4.70;3.00;;;7.20;99.90;;;;;;4956412;28;20219;-66
2021/01/22 10:14:21;;;;;;;5.73;3.03;;;7.20;99.90;;;;;;4960494;28;20204;-67
2021/01/22 10:16:47;;;;;;;3.30;2.97;;;7.30;99.90;;;;;;4976594;28;20173;-66
2021/01/22 10:19:13;;;;;;;9.30;4.90;;;7.10;99.90;;;;;;4964137;28;20182;-65
2021/01/22 10:21:38;;;;;;;4.30;3.23;;;7.10;99.90;;;;;;4956169;28;20554;-67
2021/01/22 10:24:04;;;;;;;4.87;3.57;;;7.10;99.90;;;;;;4966554;28;20189;-66
2021/01/22 10:26:30;;;;;;;4.03;2.80;;;7.20;99.90;;;;;;4976403;28;20178;-67
2021/01/22 10:28:55;;;;;;;5.50;3.30;;;7.30;99.90;;;;;;4962489;28;20182;-66
2021/01/22 10:31:21;;;;;;;5.97;3.50;;;7.40;99.90;;;;;;4957807;28;20627;-66
2021/01/22 10:33:47;;;;;;;5.60;3.77;;;7.50;99.90;;;;;;4970584;28;20180;-65
2021/01/22 10:36:14;;;;;;;4.07;3.47;;;7.70;99.90;;;;;;4976806;28;20215;-65
2021/01/22 10:38:40;;;;;;;6.40;3.60;;;7.60;99.90;;;;;;4965743;28;20539;-66
2021/01/22 10:41:07;;;;;;;5.50;3.43;;;7.60;99.90;;;;;;4976828;28;20292;-67
2021/01/22 10:43:33;;;;;;;3.53;2.90;;;7.60;99.90;;;;;;4977150;28;20173;-66
2021/01/22 10:45:59;;;;;;;9.00;3.47;;;7.70;99.90;;;;;;4975919;28;20186;-67
2021/01/22 10:48:25;;;;;;;5.87;3.30;;;7.80;99.90;;;;;;4977258;28;20177;-67
2021/01/22 10:50:51;;;;;;;7.83;3.67;;;7.90;99.90;;;;;;4976792;28;20212;-67
2021/01/22 10:53:21;;;;;;;6.47;4.30;;;7.90;99.90;;;;;;4977183;28;20621;-66
2021/01/22 10:55:47;;;;;;;6.13;3.83;;;7.90;99.90;;;;;;4975732;28;20229;-67
2021/01/22 10:58:13;;;;;;;5.03;3.60;;;8.00;99.90;;;;;;4976316;28;20188;-67
2021/01/22 11:00:39;;;;;;;4.00;3.30;;;7.90;99.90;;;;;;4976692;28;20276;-66
2021/01/22 11:03:05;;;;;;;7.50;3.83;;;7.70;99.90;;;;;;4975720;28;20170;-67
2021/01/22 11:05:31;;;;;;;5.73;4.67;;;7.70;99.90;;;;;;4976854;28;20201;-66
2021/01/22 11:07:56;;;;;;;3.80;3.43;;;7.80;99.90;;;;;;4975756;28;20718;-67
2021/01/22 11:10:22;;;;;;;3.60;3.30;;;7.80;99.90;;;;;;4976267;28;20185;-66
2021/01/22 11:12:49;;;;;;;5.20;2.97;;;7.80;99.90;;;;;;4975617;28;20178;-66
2021/01/22 11:15:14;;;;;;;4.83;3.00;;;7.90;99.90;;;;;;4966745;28;20260;-66
2021/01/22 11:17:40;;;;;;;4.80;3.40;;;7.90;99.90;;;;;;4975567;28;20197;-65
2021/01/22 11:20:07;;;;;;;7.33;4.63;;;7.90;99.90;;;;;;4973729;28;20166;-67
2021/01/22 11:22:32;;;;;;;6.97;3.63;;;8.00;99.90;;;;;;4954849;28;20660;-65
2021/01/22 11:24:59;;;;;;;5.03;3.43;;;7.90;99.90;;;;;;4954620;28;20181;-66
2021/01/22 11:27:25;;;;;;;5.73;3.30;;;7.70;99.90;;;;;;4973895;28;20204;-65
2021/01/22 11:29:51;;;;;;;4.30;3.60;;;7.70;99.90;;;;;;4972732;28;20708;-65
2021/01/22 11:32:18;;;;;;;6.37;3.67;;;7.70;99.90;;;;;;4955530;28;20214;-67
2021/01/22 11:34:43;;;;;;;7.73;4.20;;;7.80;99.90;;;;;;4955111;28;20174;-66
2021/01/22 11:37:09;;;;;;;8.50;3.70;;;7.90;99.90;;;;;;4972045;28;20577;-66
2021/01/22 11:39:37;;;;;;;5.57;3.37;;;8.00;99.90;;;;;;4974440;28;20261;-64
2021/01/22 11:42:06;;;;;;;4.73;3.13;;;8.10;99.90;;;;;;5034847;23;20240;-65
2021/01/22 11:44:32;;;;;;;5.17;3.37;;;8.20;99.90;;;;;;4962592;28;20188;-65
2021/01/22 11:46:58;;;;;;;4.03;2.93;;;8.20;99.90;;;;;;4973106;28;20256;-65
2021/01/22 11:49:24;;;;;;;3.93;3.33;;;8.10;99.90;;;;;;4973465;28;20173;-65
2021/01/22 11:51:50;;;;;;;15.70;3.40;;;8.10;99.90;;;;;;4960710;28;20281;-65
2021/01/22 11:54:15;;;;;;;5.17;3.83;;;8.00;99.90;;;;;;4954185;28;20175;-64
2021/01/22 11:56:41;;;;;;;4.27;3.03;;;8.10;99.90;;;;;;4963934;28;20174;-63
2021/01/22 11:59:10;;;;;;;4.63;3.03;;;8.20;99.90;;;;;;4966750;28;20252;-64
2021/01/22 12:01:36;;;;;;;4.00;2.80;;;8.10;99.90;;;;;;4954375;28;20622;-63
2021/01/22 12:04:02;;;;;;;4.53;3.20;;;8.20;99.90;;;;;;4957928;28;20192;-64
2021/01/22 12:06:27;;;;;;;5.73;3.30;;;8.10;99.90;;;;;;4953852;28;20261;-63
2021/01/22 12:08:53;;;;;;;4.10;2.90;;;8.10;99.90;;;;;;4972347;28;20662;-63
2021/01/22 12:11:19;;;;;;;3.73;3.30;;;7.90;99.90;;;;;;4973017;28;20205;-63
2021/01/22 12:13:44;;;;;;;2.77;2.57;;;7.90;99.90;;;;;;4955651;28;20523;-63
2021/01/22 12:16:10;;;;;;;5.63;3.30;;;7.90;99.90;;;;;;4954217;28;20182;-63
2021/01/22 12:18:36;;;;;;;4.67;2.97;;;8.00;99.90;;;;;;4972715;28;20189;-64
2021/01/22 12:21:01;;;;;;;4.93;3.43;;;8.00;99.90;;;;;;4972881;28;20193;-64
2021/01/22 12:23:27;;;;;;;5.63;3.40;;;8.00;99.90;;;;;;4954616;28;20182;-64
2021/01/22 12:25:53;;;;;;;5.00;3.50;;;8.10;99.90;;;;;;4953591;28;20540;-64
2021/01/22 12:28:18;;;;;;;6.33;3.87;;;8.00;99.90;;;;;;4969781;28;20181;-64
2021/01/22 12:30:44;;;;;;;4.63;2.90;;;8.00;99.90;;;;;;4973013;28;20213;-63
2021/01/22 12:33:10;;;;;;;5.43;3.23;;;7.90;99.90;;;;;;4963147;28;20225;-64
2021/01/22 12:35:36;;;;;;;6.57;3.37;;;7.90;99.90;;;;;;4971467;28;20185;-63
2021/01/22 12:38:02;;;;;;;7.67;4.10;;;7.90;99.90;;;;;;4958983;28;20193;-63
2021/01/22 12:40:27;;;;;;;7.03;3.97;;;8.00;99.90;;;;;;4953382;28;20178;-65
2021/01/22 12:42:53;;;;;;;8.27;4.00;;;8.00;99.90;;;;;;4964839;28;20272;-64
2021/01/22 12:45:23;;;;;;;6.60;3.80;;;8.10;99.90;;;;;;4972747;28;20173;-64
2021/01/22 12:47:50;;;;;;;10.23;3.83;;;8.10;99.90;;;;;;4961312;28;20248;-63
2021/01/22 12:50:15;;;;;;;6.40;3.27;;;8.10;99.90;;;;;;4953511;28;20201;-63
2021/01/22 12:52:41;;;;;;;3.80;3.33;;;8.00;99.90;;;;;;4962110;28;20280;-63
2021/01/22 12:55:07;;;;;;;7.73;3.77;;;7.90;99.90;;;;;;4967894;28;20181;-63
2021/01/22 12:57:33;;;;;;;5.93;3.53;;;7.80;99.90;;;;;;4952855;28;20174;-63